Terminal Aerodrome Forecast
Issued by NWS

Home | Current Version | Previous Version | Text Only | Print | Product List | Glossary On
Versions: 1 2 3 4 5 6 7 8 9 10 11 12
000
FTUS45 KRIW 290523
TAFLND
TAF
KLND 290523Z 2906/3006 VRB06KT P6SM SCT120
     FM290900 17008KT P6SM VCSH SCT090 BKN130
     FM291400 21010KT P6SM SCT100
     FM292000 20012G20KT P6SM SCT080 BKN200
     FM300300 23008KT P6SM SCT090=

USA.gov is the U.S. government's official web portal to all federal, state and local government web resources and services.